• Join FlightAware (Why Join?)
  • Login
  • US Flag 
 
06:35AM EST


 

Airport Tracker/Info


-or-


 

Live Flight TrackerFlight Track Log ✈ SKW6492 ✈ 26-Aug-2013 ✈ KDEN - KCOD

Flight Track Log - Related Links

Times and Time Zones

All times are in EDT time to prevent confusion due to time zone crossing. See the SKW6492 flight status page for this flight to view local times or setup timezone preferences in your user account.

Time Position Orientation Groundspeed Altitude Reporting Facility
EDT Latitude Longitude Course Direction KTS MPH feet Rate Location/Type
09:59PM 39.8500 -104.7833 346° North 200 230 7,700  Level Denver TRACON
10:00PM 39.8833 -104.8667 298° West 259 298 9,400 1,620 Climbing Denver TRACON
10:01PM 39.9411 -104.9281 321° Northwest 284 327 10,900 1,680 Climbing Denver Center
10:02PM 40.0292 -104.9461 351° North 304 350 12,800 1,740 Climbing Denver Center
10:03PM 40.1122 -104.9122 17° North 319 367 14,600 1,560 Climbing Denver Center
10:04PM 40.4932 -104.8755 346° North  Level FlightAware Approximate
10:04PM 40.1989 -104.8775 17° North 337 388 16,100  Level Denver Center
10:05PM 40.3031 -104.8728 North 347 399 17,700 1,440 Climbing Denver Center
10:06PM 40.4019 -104.8694 North 353 406 19,100 1,260 Climbing Denver Center
10:07PM 40.5139 -104.8628 North 373 429 20,400 1,200 Climbing Denver Center
10:08PM 40.6167 -104.8611 North 370 426 21,700 1,200 Climbing Denver Center
10:09PM 40.7239 -104.8525 North 388 447 22,900 1,020 Climbing Denver Center
10:10PM 40.8269 -104.8692 353° North 378 435 23,900 900 Climbing Denver Center
10:11PM 40.9278 -104.9172 340° North 387 445 24,800 720 Climbing Denver Center
10:12PM 41.0311 -104.9692 339° North 391 450 25,500 780 Climbing Denver Center
10:13PM 41.1481 -105.0250 340° North 398 458 26,400 720 Climbing Denver Center
10:14PM 41.2497 -105.0761 339° North 406 467 27,000 660 Climbing Denver Center
10:15PM 41.3719 -105.1372 339° North 418 481 27,800 660 Climbing Denver Center
10:16PM 41.4758 -105.1897 339° North 418 481 28,400 420 Climbing Denver Center
10:17PM 41.5811 -105.2483 337° Northwest 425 489 28,700 420 Climbing Denver Center
10:18PM 41.6892 -105.3481 325° Northwest 426 490 29,300 480 Climbing Denver Center
10:19PM 41.7717 -105.4467 318° Northwest 416 479 29,800 480 Climbing Denver Center
10:20PM 41.8694 -105.5658 318° Northwest 422 486 30,400 420 Climbing Denver Center
10:21PM 41.9542 -105.6694 318° Northwest 425 489 30,700 300 Climbing Denver Center
10:22PM 42.0403 -105.7733 318° Northwest 431 496 31,100 480 Climbing Denver Center
10:23PM 42.1381 -105.8953 317° Northwest 430 495 31,800 420 Climbing Denver Center
10:24PM 42.2222 -106.0006 317° Northwest 430 495 32,000 60 Climbing Denver Center
10:25PM 42.3233 -106.1272 317° Northwest 441 507 32,000  Level Denver Center
10:26PM 42.4125 -106.2372 318° Northwest 450 518 32,000  Level Denver Center
10:27PM 42.5014 -106.3497 317° Northwest 457 526 32,000  Level Denver Center
10:28PM 42.6044 -106.4800 317° Northwest 454 522 32,000  Level Denver Center
10:30PM 42.6925 -106.5908 317° Northwest 451 519 32,000  Level Denver Center
10:31PM 42.7961 -106.7225 317° Northwest 454 522 32,000  Level Denver Center
10:32PM 42.8833 -106.8353 317° Northwest 453 521 32,000  Level Denver Center
10:32PM 42.9558 -106.9308 316° Northwest 453 521 32,000  Level Salt Lake Center
10:33PM 43.0592 -107.0656 316° Northwest 454 522 32,000  Level Salt Lake Center
10:34PM 43.1494 -107.1811 317° Northwest 447 514 32,000  Level Salt Lake Center
10:36PM 43.2403 -107.2994 317° Northwest 450 518 32,000  Level Salt Lake Center
10:37PM 43.3306 -107.4158 317° Northwest 447 514 32,000  Level Salt Lake Center
10:38PM 43.4203 -107.5356 316° Northwest 449 517 32,000  Level Salt Lake Center
10:39PM 43.5097 -107.6531 316° Northwest 445 512 32,000  Level Salt Lake Center
10:40PM 43.5981 -107.7714 316° Northwest 444 511 32,000  Level Salt Lake Center
10:41PM 43.6872 -107.8900 316° Northwest 444 511 32,000  Level Salt Lake Center
10:42PM 43.7936 -108.0328 316° Northwest 443 510 32,000 -1,080 Level Salt Lake Center
10:43PM 43.8850 -108.1431 319° Northwest 439 505 29,900 -2,520 Descending Salt Lake Center
10:44PM 43.9869 -108.2217 331° Northwest 423 487 26,900 -2,940 Descending Salt Lake Center
10:45PM 44.0797 -108.2928 331° Northwest 388 447 23,900 -2,940 Descending Salt Lake Center
10:46PM 44.1656 -108.3619 330° Northwest 363 418 20,900 -2,820 Descending Salt Lake Center
10:47PM 44.2450 -108.4272 330° Northwest 341 392 18,200 -2,460 Descending Salt Lake Center
10:48PM 44.3247 -108.4903 331° Northwest 331 381 15,900 -2,400 Descending Salt Lake Center
10:49PM 44.4031 -108.5536 330° Northwest 328 377 13,400 -2,400 Descending Salt Lake Center
10:50PM 44.4942 -108.6272 330° Northwest 323 372 11,100 -1,920 Descending Salt Lake Center
10:51PM 44.5642 -108.6842 330° Northwest 310 357 9,500 -1,080 Descending Salt Lake Center
10:52PM 44.6269 -108.7344 330° Northwest 288 331 9,000 -600 Descending Salt Lake Center
10:53PM 44.6439 -108.7992 290° West 240 276 8,300 -720 Descending Salt Lake Center